Wilmington, North Carolina
Current Conditions -  °F | °C
As of 4:53 AM on Friday 24 Oct 2014 (Local Time) from KILM Reporting Station
Clear Clear  
Wind Chill:   Ceiling: Unl
Heat Index:   Visibility: 10mi
Dew Point:   Wind: 3mph
Humidity: 90%   Direction: 330°NNW
Pressure: 29.98"   Gusts: NA
Location:  34.24°N, 77.94°W
Report Text: KILM 240853Z AUTO 33003KT 10SM CLR 09/08 A2998 RMK AO2 SLP152 T00940078 58002
Loading
Personal Weather Stations






























Interactive Weather Map
Tropical Storm Tracking
New forecast layout! Learn more

10-Day Weather Forecast

Advertisements
Track Severe Weather on mobile